sensor_id;sensor_type;location;lat;lon;timestamp;pressure;altitude;pressure_sealevel;temperature;humidity
41312;BME280;27061;41.648;24.568;2022-07-29T00:01:41;86314.88;;;20.89;54.83
41312;BME280;27061;41.648;24.568;2022-07-29T00:04:09;86288.94;;;20.70;54.71
41312;BME280;27061;41.648;24.568;2022-07-29T00:06:36;86293.66;;;20.75;54.82
41312;BME280;27061;41.648;24.568;2022-07-29T00:09:52;86274.13;;;20.55;54.52
41312;BME280;27061;41.648;24.568;2022-07-29T00:12:22;86308.16;;;20.82;54.76
41312;BME280;27061;41.648;24.568;2022-07-29T00:14:54;86303.19;;;20.82;54.55
41312;BME280;27061;41.648;24.568;2022-07-29T00:17:23;86302.84;;;20.74;54.64
41312;BME280;27061;41.648;24.568;2022-07-29T00:20:16;86303.88;;;20.83;54.57
41312;BME280;27061;41.648;24.568;2022-07-29T00:22:44;86294.75;;;20.82;54.65
41312;BME280;27061;41.648;24.568;2022-07-29T00:25:12;86243.13;;;20.21;55.29
41312;BME280;27061;41.648;24.568;2022-07-29T00:27:40;86276.94;;;20.55;54.46
41312;BME280;27061;41.648;24.568;2022-07-29T00:30:13;86244.06;;;20.32;54.52
41312;BME280;27061;41.648;24.568;2022-07-29T00:32:40;86284.06;;;20.52;54.93
41312;BME280;27061;41.648;24.568;2022-07-29T00:35:15;86300.63;;;20.60;54.89
41312;BME280;27061;41.648;24.568;2022-07-29T00:38:01;86276.47;;;20.48;54.88
41312;BME280;27061;41.648;24.568;2022-07-29T00:40:29;86277.56;;;20.38;55.12
41312;BME280;27061;41.648;24.568;2022-07-29T00:42:56;86256.91;;;20.27;55.08
41312;BME280;27061;41.648;24.568;2022-07-29T00:45:25;86291.06;;;20.53;54.95
41312;BME280;27061;41.648;24.568;2022-07-29T00:47:53;86287.50;;;20.54;54.94
41312;BME280;27061;41.648;24.568;2022-07-29T00:50:23;86258.03;;;20.34;54.74
41312;BME280;27061;41.648;24.568;2022-07-29T00:52:56;86266.19;;;20.24;54.82
41312;BME280;27061;41.648;24.568;2022-07-29T00:55:24;86288.22;;;20.36;55.09
41312;BME280;27061;41.648;24.568;2022-07-29T00:57:53;86284.03;;;20.35;54.86
41312;BME280;27061;41.648;24.568;2022-07-29T01:00:23;86280.91;;;20.43;54.08
41312;BME280;27061;41.648;24.568;2022-07-29T01:02:52;86264.06;;;20.24;54.30
41312;BME280;27061;41.648;24.568;2022-07-29T01:05:22;86262.19;;;20.19;54.30
41312;BME280;27061;41.648;24.568;2022-07-29T01:07:52;86274.03;;;20.21;54.85
41312;BME280;27061;41.648;24.568;2022-07-29T01:10:21;86274.13;;;20.19;54.64
41312;BME280;27061;41.648;24.568;2022-07-29T01:12:52;86273.56;;;20.15;54.77
41312;BME280;27061;41.648;24.568;2022-07-29T01:15:21;86275.81;;;20.12;54.61
41312;BME280;27061;41.648;24.568;2022-07-29T01:18:04;86255.31;;;19.97;54.66
41312;BME280;27061;41.648;24.568;2022-07-29T01:29:36;86269.28;;;19.99;54.74
41312;BME280;27061;41.648;24.568;2022-07-29T01:32:20;86239.41;;;19.72;54.66
41312;BME280;27061;41.648;24.568;2022-07-29T01:35:04;86261.53;;;19.99;54.52
41312;BME280;27061;41.648;24.568;2022-07-29T01:37:45;86259.88;;;19.88;54.26
41312;BME280;27061;41.648;24.568;2022-07-29T01:40:41;86262.53;;;19.92;54.51
41312;BME280;27061;41.648;24.568;2022-07-29T01:43:16;86243.75;;;19.69;54.38
41312;BME280;27061;41.648;24.568;2022-07-29T01:45:48;86252.53;;;19.78;55.00
41312;BME280;27061;41.648;24.568;2022-07-29T01:48:22;86258.91;;;19.77;55.08
41312;BME280;27061;41.648;24.568;2022-07-29T01:51:00;86244.66;;;19.64;55.21
41312;BME280;27061;41.648;24.568;2022-07-29T01:53:50;86254.06;;;19.75;55.00
41312;BME280;27061;41.648;24.568;2022-07-29T01:56:31;86250.94;;;19.64;54.95
41312;BME280;27061;41.648;24.568;2022-07-29T01:59:03;86258.63;;;19.66;55.23
41312;BME280;27061;41.648;24.568;2022-07-29T02:01:34;86237.44;;;19.50;55.31
41312;BME280;27061;41.648;24.568;2022-07-29T02:04:04;86252.31;;;19.65;55.28
41312;BME280;27061;41.648;24.568;2022-07-29T02:07:00;86258.63;;;19.66;55.55
41312;BME280;27061;41.648;24.568;2022-07-29T02:09:54;86258.84;;;19.60;55.38
41312;BME280;27061;41.648;24.568;2022-07-29T02:12:25;86230.91;;;19.37;55.15
41312;BME280;27061;41.648;24.568;2022-07-29T02:14:54;86237.72;;;19.42;55.49
41312;BME280;27061;41.648;24.568;2022-07-29T02:17:33;86225.50;;;19.31;55.52
41312;BME280;27061;41.648;24.568;2022-07-29T02:20:08;86255.78;;;19.47;55.44
41312;BME280;27061;41.648;24.568;2022-07-29T02:22:39;86235.28;;;19.32;55.43
41312;BME280;27061;41.648;24.568;2022-07-29T02:25:12;86258.47;;;19.51;55.41
41312;BME280;27061;41.648;24.568;2022-07-29T02:27:42;86240.84;;;19.34;55.28
41312;BME280;27061;41.648;24.568;2022-07-29T02:30:36;86254.38;;;19.48;55.26
41312;BME280;27061;41.648;24.568;2022-07-29T02:33:08;86226.25;;;19.29;54.94
41312;BME280;27061;41.648;24.568;2022-07-29T02:35:38;86253.75;;;19.46;55.01
41312;BME280;27061;41.648;24.568;2022-07-29T02:38:12;86250.19;;;19.47;54.98
41312;BME280;27061;41.648;24.568;2022-07-29T02:41:01;86253.75;;;19.46;55.16
41312;BME280;27061;41.648;24.568;2022-07-29T02:43:31;86255.13;;;19.47;54.90
41312;BME280;27061;41.648;24.568;2022-07-29T02:46:27;86251.41;;;19.52;54.51
41312;BME280;27061;41.648;24.568;2022-07-29T02:49:12;86255.25;;;19.43;54.68
41312;BME280;27061;41.648;24.568;2022-07-29T02:52:24;86227.25;;;19.22;55.27
41312;BME280;27061;41.648;24.568;2022-07-29T02:55:14;86261.69;;;19.20;55.85
41312;BME280;27061;41.648;24.568;2022-07-29T02:57:46;86253.94;;;19.21;55.50
41312;BME280;27061;41.648;24.568;2022-07-29T03:00:23;86237.84;;;19.00;55.11
41312;BME280;27061;41.648;24.568;2022-07-29T03:02:58;86231.16;;;18.91;55.12
41312;BME280;27061;41.648;24.568;2022-07-29T03:05:27;86240.53;;;19.05;55.23
41312;BME280;27061;41.648;24.568;2022-07-29T03:08:26;86229.94;;;18.86;55.28
41312;BME280;27061;41.648;24.568;2022-07-29T03:10:55;86257.94;;;19.07;55.14
41312;BME280;27061;41.648;24.568;2022-07-29T03:13:23;86266.97;;;19.10;54.83
41312;BME280;27061;41.648;24.568;2022-07-29T03:15:53;86268.72;;;19.00;54.98
41312;BME280;27061;41.648;24.568;2022-07-29T03:18:21;86258.47;;;18.93;54.53
41312;BME280;27061;41.648;24.568;2022-07-29T03:20:49;86274.19;;;19.05;53.90
41312;BME280;27061;41.648;24.568;2022-07-29T03:23:20;86259.44;;;18.85;53.55
41312;BME280;27061;41.648;24.568;2022-07-29T03:25:51;86274.41;;;18.78;54.42
41312;BME280;27061;41.648;24.568;2022-07-29T03:28:21;86256.66;;;18.64;54.38
41312;BME280;27061;41.648;24.568;2022-07-29T03:30:53;86283.31;;;18.84;54.31
41312;BME280;27061;41.648;24.568;2022-07-29T03:33:22;86270.75;;;18.83;54.12
41312;BME280;27061;41.648;24.568;2022-07-29T03:35:51;86279.09;;;18.85;53.69
41312;BME280;27061;41.648;24.568;2022-07-29T03:38:23;86258.97;;;18.79;53.31
41312;BME280;27061;41.648;24.568;2022-07-29T03:41:05;86235.88;;;18.57;53.42
41312;BME280;27061;41.648;24.568;2022-07-29T03:43:37;86266.00;;;18.78;54.47
41312;BME280;27061;41.648;24.568;2022-07-29T03:46:16;86238.13;;;18.53;54.74
41312;BME280;27061;41.648;24.568;2022-07-29T03:48:48;86248.84;;;18.67;54.88
41312;BME280;27061;41.648;24.568;2022-07-29T03:51:18;86244.47;;;18.51;55.23
41312;BME280;27061;41.648;24.568;2022-07-29T03:54:02;86262.28;;;18.64;55.52
41312;BME280;27061;41.648;24.568;2022-07-29T03:56:40;86269.66;;;18.74;55.75
41312;BME280;27061;41.648;24.568;2022-07-29T03:59:09;86268.34;;;18.71;55.85
41312;BME280;27061;41.648;24.568;2022-07-29T04:01:38;86260.91;;;18.63;56.35
41312;BME280;27061;41.648;24.568;2022-07-29T04:04:06;86244.25;;;18.37;56.35
41312;BME280;27061;41.648;24.568;2022-07-29T04:06:41;86278.06;;;18.74;56.75
41312;BME280;27061;41.648;24.568;2022-07-29T04:09:39;86276.75;;;18.71;57.10
41312;BME280;27061;41.648;24.568;2022-07-29T04:12:08;86273.91;;;18.73;57.02
41312;BME280;27061;41.648;24.568;2022-07-29T04:14:35;86267.19;;;18.64;56.98
41312;BME280;27061;41.648;24.568;2022-07-29T04:17:04;86266.50;;;18.63;58.02
41312;BME280;27061;41.648;24.568;2022-07-29T04:19:32;86267.19;;;18.64;57.74
41312;BME280;27061;41.648;24.568;2022-07-29T04:22:01;86278.53;;;18.81;57.85
41312;BME280;27061;41.648;24.568;2022-07-29T04:24:28;86284.59;;;18.87;57.68
41312;BME280;27061;41.648;24.568;2022-07-29T04:26:56;86264.94;;;18.69;57.56
41312;BME280;27061;41.648;24.568;2022-07-29T04:29:23;86286.03;;;18.86;58.18
41312;BME280;27061;41.648;24.568;2022-07-29T04:31:53;86261.94;;;18.75;58.17
41312;BME280;27061;41.648;24.568;2022-07-29T04:34:21;86287.16;;;18.95;58.36
41312;BME280;27061;41.648;24.568;2022-07-29T04:37:14;86284.25;;;18.97;56.67
41312;BME280;27061;41.648;24.568;2022-07-29T04:39:41;86269.06;;;18.90;56.65
41312;BME280;27061;41.648;24.568;2022-07-29T04:42:09;86288.16;;;19.07;59.32
41312;BME280;27061;41.648;24.568;2022-07-29T04:44:36;86267.56;;;18.93;59.92
41312;BME280;27061;41.648;24.568;2022-07-29T04:47:12;86276.03;;;19.12;60.64
41312;BME280;27061;41.648;24.568;2022-07-29T04:49:39;86268.94;;;18.94;60.12
41312;BME280;27061;41.648;24.568;2022-07-29T04:52:07;86289.22;;;19.16;58.86
41312;BME280;27061;41.648;24.568;2022-07-29T04:54:34;86284.22;;;19.18;58.25
41312;BME280;27061;41.648;24.568;2022-07-29T04:57:03;86272.47;;;19.14;57.27
41312;BME280;27061;41.648;24.568;2022-07-29T04:59:36;86287.50;;;19.25;56.58
41312;BME280;27061;41.648;24.568;2022-07-29T05:02:03;86286.66;;;19.28;57.72
41312;BME280;27061;41.648;24.568;2022-07-29T05:04:31;86270.78;;;19.21;59.19
41312;BME280;27061;41.648;24.568;2022-07-29T05:06:58;86244.47;;;19.12;57.78
41312;BME280;27061;41.648;24.568;2022-07-29T05:09:25;86277.69;;;19.24;56.21
41312;BME280;27061;41.648;24.568;2022-07-29T05:11:53;86271.84;;;19.30;58.09
41312;BME280;27061;41.648;24.568;2022-07-29T05:14:20;86290.03;;;19.52;58.00
41312;BME280;27061;41.648;24.568;2022-07-29T05:17:13;86284.66;;;19.64;53.45
41312;BME280;27061;41.648;24.568;2022-07-29T05:20:07;86293.00;;;19.66;55.76
41312;BME280;27061;41.648;24.568;2022-07-29T05:22:35;86277.22;;;19.57;58.40
41312;BME280;27061;41.648;24.568;2022-07-29T05:25:28;86295.28;;;19.81;57.34
41312;BME280;27061;41.648;24.568;2022-07-29T05:28:12;86295.81;;;19.85;56.71
41312;BME280;27061;41.648;24.568;2022-07-29T05:30:43;86296.56;;;19.84;59.41
41312;BME280;27061;41.648;24.568;2022-07-29T05:33:12;86296.78;;;19.96;58.75
41312;BME280;27061;41.648;24.568;2022-07-29T05:36:00;86297.00;;;20.09;58.15
41312;BME280;27061;41.648;24.568;2022-07-29T05:38:28;86285.97;;;20.03;57.77
41312;BME280;27061;41.648;24.568;2022-07-29T05:40:57;86295.75;;;20.23;57.71
41312;BME280;27061;41.648;24.568;2022-07-29T05:43:27;86299.53;;;20.34;55.66
41312;BME280;27061;41.648;24.568;2022-07-29T05:45:55;86300.06;;;20.38;55.60
41312;BME280;27061;41.648;24.568;2022-07-29T05:48:47;86261.50;;;20.18;55.29
41312;BME280;27061;41.648;24.568;2022-07-29T05:51:15;86290.03;;;20.43;54.79
41312;BME280;27061;41.648;24.568;2022-07-29T05:53:42;86287.03;;;20.48;56.50
41312;BME280;27061;41.648;24.568;2022-07-29T05:56:36;86293.22;;;20.69;54.76
41312;BME280;27061;41.648;24.568;2022-07-29T05:59:04;86305.16;;;20.86;54.99
41312;BME280;27061;41.648;24.568;2022-07-29T06:01:43;86294.34;;;20.76;54.61
41312;BME280;27061;41.648;24.568;2022-07-29T06:04:11;86310.72;;;21.05;54.57
41312;BME280;27061;41.648;24.568;2022-07-29T06:10:00;86315.50;;;21.25;54.79
41312;BME280;27061;41.648;24.568;2022-07-29T06:12:28;86298.25;;;21.16;54.38
41312;BME280;27061;41.648;24.568;2022-07-29T06:14:55;86296.88;;;21.32;53.16
41312;BME280;27061;41.648;24.568;2022-07-29T06:17:23;86317.69;;;21.56;52.66
41312;BME280;27061;41.648;24.568;2022-07-29T06:19:52;86323.03;;;21.62;51.41
41312;BME280;27061;41.648;24.568;2022-07-29T06:22:19;86321.28;;;21.54;51.95
41312;BME280;27061;41.648;24.568;2022-07-29T06:25:12;86329.44;;;21.77;50.77
41312;BME280;27061;41.648;24.568;2022-07-29T06:27:40;86317.47;;;21.77;50.22
41312;BME280;27061;41.648;24.568;2022-07-29T06:30:35;86328.19;;;21.89;49.79
41312;BME280;27061;41.648;24.568;2022-07-29T06:33:03;86331.63;;;21.91;48.18
41312;BME280;27061;41.648;24.568;2022-07-29T06:35:34;86330.91;;;22.08;47.69
41312;BME280;27061;41.648;24.568;2022-07-29T06:38:07;86342.69;;;22.12;48.94
41312;BME280;27061;41.648;24.568;2022-07-29T06:40:55;86326.06;;;22.21;47.65
41312;BME280;27061;41.648;24.568;2022-07-29T06:43:53;86329.97;;;22.28;47.56
41312;BME280;27061;41.648;24.568;2022-07-29T06:46:23;86309.63;;;22.25;45.42
41312;BME280;27061;41.648;24.568;2022-07-29T06:48:50;86303.22;;;22.27;45.50
41312;BME280;27061;41.648;24.568;2022-07-29T06:51:20;86298.56;;;22.36;45.25
41312;BME280;27061;41.648;24.568;2022-07-29T06:53:51;86299.66;;;22.43;45.25
41312;BME280;27061;41.648;24.568;2022-07-29T06:56:55;86317.56;;;22.67;46.12
41312;BME280;27061;41.648;24.568;2022-07-29T06:59:22;86310.94;;;22.73;45.27
41312;BME280;27061;41.648;24.568;2022-07-29T07:02:04;86317.78;;;22.78;45.12
41312;BME280;27061;41.648;24.568;2022-07-29T07:04:32;86324.28;;;22.89;45.02
41312;BME280;27061;41.648;24.568;2022-07-29T07:10:19;86310.66;;;22.93;43.86
41312;BME280;27061;41.648;24.568;2022-07-29T07:12:46;86322.50;;;23.11;42.73
41312;BME280;27061;41.648;24.568;2022-07-29T07:15:17;86317.34;;;23.15;44.97
41312;BME280;27061;41.648;24.568;2022-07-29T07:18:10;86299.72;;;23.15;43.43
41312;BME280;27061;41.648;24.568;2022-07-29T07:20:38;86318.03;;;23.30;43.19
41312;BME280;27061;41.648;24.568;2022-07-29T07:23:06;86295.13;;;23.22;43.75
41312;BME280;27061;41.648;24.568;2022-07-29T07:25:58;86322.75;;;23.49;41.74
41312;BME280;27061;41.648;24.568;2022-07-29T07:28:26;86323.72;;;23.58;38.88
41312;BME280;27061;41.648;24.568;2022-07-29T07:30:53;86319.19;;;23.63;39.83
41312;BME280;27061;41.648;24.568;2022-07-29T07:33:20;86323.09;;;23.70;38.69
41312;BME280;27061;41.648;24.568;2022-07-29T07:35:47;86322.88;;;23.74;39.98
41312;BME280;27061;41.648;24.568;2022-07-29T07:38:16;86325.16;;;23.84;36.40
41312;BME280;27061;41.648;24.568;2022-07-29T07:40:43;86311.31;;;23.93;35.29
41312;BME280;27061;41.648;24.568;2022-07-29T07:43:13;86319.41;;;23.86;38.05
41312;BME280;27061;41.648;24.568;2022-07-29T07:45:40;86313.88;;;23.84;40.22
41312;BME280;27061;41.648;24.568;2022-07-29T07:48:09;86319.13;;;24.05;37.07
41312;BME280;27061;41.648;24.568;2022-07-29T07:50:36;86312.97;;;24.15;38.32
41312;BME280;27061;41.648;24.568;2022-07-29T07:53:29;86313.63;;;24.16;35.96
41312;BME280;27061;41.648;24.568;2022-07-29T07:55:58;86293.03;;;24.17;36.43
41312;BME280;27061;41.648;24.568;2022-07-29T07:58:38;86323.31;;;24.33;39.11
41312;BME280;27061;41.648;24.568;2022-07-29T08:01:06;86272.84;;;23.98;38.58
41312;BME280;27061;41.648;24.568;2022-07-29T08:04:00;86323.22;;;24.48;38.05
41312;BME280;27061;41.648;24.568;2022-07-29T08:06:28;86307.47;;;24.38;35.63
41312;BME280;27061;41.648;24.568;2022-07-29T08:08:55;86317.56;;;24.48;36.47
41312;BME280;27061;41.648;24.568;2022-07-29T08:11:43;86330.63;;;24.68;40.41
41312;BME280;27061;41.648;24.568;2022-07-29T08:14:18;86331.75;;;24.73;41.67
41312;BME280;27061;41.648;24.568;2022-07-29T08:16:47;86297.56;;;24.65;36.94
41312;BME280;27061;41.648;24.568;2022-07-29T08:19:14;86324.41;;;24.91;35.58
41312;BME280;27061;41.648;24.568;2022-07-29T08:22:07;86328.72;;;25.03;39.25
41312;BME280;27061;41.648;24.568;2022-07-29T08:24:34;86270.03;;;24.63;37.81
41312;BME280;27061;41.648;24.568;2022-07-29T08:27:36;86330.88;;;25.15;41.23
41312;BME280;27061;41.648;24.568;2022-07-29T08:30:10;86311.38;;;25.22;40.74
41312;BME280;27061;41.648;24.568;2022-07-29T08:32:38;86307.06;;;25.23;39.83
41312;BME280;27061;41.648;24.568;2022-07-29T08:35:23;86307.31;;;25.31;38.96
41312;BME280;27061;41.648;24.568;2022-07-29T08:37:52;86307.94;;;25.44;38.31
41312;BME280;27061;41.648;24.568;2022-07-29T08:40:20;86302.28;;;25.44;39.40
41312;BME280;27061;41.648;24.568;2022-07-29T08:43:04;86320.94;;;25.65;39.99
41312;BME280;27061;41.648;24.568;2022-07-29T08:45:44;86326.03;;;25.75;39.26
41312;BME280;27061;41.648;24.568;2022-07-29T08:48:39;86314.75;;;25.85;38.02
41312;BME280;27061;41.648;24.568;2022-07-29T08:51:08;86322.81;;;25.94;38.11
41312;BME280;27061;41.648;24.568;2022-07-29T08:54:02;86323.56;;;26.05;38.21
41312;BME280;27061;41.648;24.568;2022-07-29T08:56:29;86295.59;;;25.86;35.92
41312;BME280;27061;41.648;24.568;2022-07-29T08:59:25;86323.63;;;26.15;34.54
41312;BME280;27061;41.648;24.568;2022-07-29T09:02:20;86313.50;;;26.18;34.98
41312;BME280;27061;41.648;24.568;2022-07-29T09:04:49;86285.88;;;26.06;38.72
41312;BME280;27061;41.648;24.568;2022-07-29T09:07:18;86316.88;;;26.34;38.17
41312;BME280;27061;41.648;24.568;2022-07-29T09:10:11;86312.72;;;26.43;38.17
41312;BME280;27061;41.648;24.568;2022-07-29T09:12:39;86303.31;;;26.47;34.20
41312;BME280;27061;41.648;24.568;2022-07-29T09:15:07;86306.66;;;26.49;37.42
41312;BME280;27061;41.648;24.568;2022-07-29T09:17:44;86289.91;;;26.45;38.09
41312;BME280;27061;41.648;24.568;2022-07-29T09:20:17;86310.13;;;26.63;36.57
41312;BME280;27061;41.648;24.568;2022-07-29T09:22:46;86295.50;;;26.58;38.13
41312;BME280;27061;41.648;24.568;2022-07-29T09:28:11;86284.72;;;26.71;37.57
41312;BME280;27061;41.648;24.568;2022-07-29T09:30:53;86308.53;;;27.00;37.88
41312;BME280;27061;41.648;24.568;2022-07-29T09:33:22;86268.97;;;26.85;38.93
41312;BME280;27061;41.648;24.568;2022-07-29T09:36:03;86307.38;;;27.18;35.23
41312;BME280;27061;41.648;24.568;2022-07-29T09:38:32;86312.66;;;27.24;36.89
41312;BME280;27061;41.648;24.568;2022-07-29T09:41:29;86283.97;;;27.17;37.67
41312;BME280;27061;41.648;24.568;2022-07-29T09:43:58;86308.25;;;27.48;36.53
41312;BME280;27061;41.648;24.568;2022-07-29T09:46:27;86304.88;;;27.56;35.38
41312;BME280;27061;41.648;24.568;2022-07-29T09:49:20;86308.53;;;27.65;38.26
41312;BME280;27061;41.648;24.568;2022-07-29T09:52:13;86282.94;;;27.55;37.03
41312;BME280;27061;41.648;24.568;2022-07-29T09:54:41;86295.69;;;27.77;37.95
41312;BME280;27061;41.648;24.568;2022-07-29T09:57:23;86274.97;;;27.79;36.00
41312;BME280;27061;41.648;24.568;2022-07-29T10:00:18;86293.38;;;28.01;36.37
41312;BME280;27061;41.648;24.568;2022-07-29T10:02:47;86284.84;;;28.01;36.37
41312;BME280;27061;41.648;24.568;2022-07-29T10:05:24;86297.72;;;28.21;37.27
41312;BME280;27061;41.648;24.568;2022-07-29T10:08:02;86294.19;;;28.31;34.52
41312;BME280;27061;41.648;24.568;2022-07-29T10:10:32;86289.47;;;28.28;36.51
41312;BME280;27061;41.648;24.568;2022-07-29T10:13:07;86303.13;;;28.47;37.20
41312;BME280;27061;41.648;24.568;2022-07-29T10:15:45;86289.84;;;28.43;35.67
41312;BME280;27061;41.648;24.568;2022-07-29T10:18:14;86301.34;;;28.52;37.44
41312;BME280;27061;41.648;24.568;2022-07-29T10:20:44;86298.19;;;28.66;32.69
41312;BME280;27061;41.648;24.568;2022-07-29T10:23:13;86298.44;;;28.73;34.43
41312;BME280;27061;41.648;24.568;2022-07-29T10:25:41;86299.78;;;28.74;32.99
41312;BME280;27061;41.648;24.568;2022-07-29T10:28:37;86296.25;;;28.84;34.22
41312;BME280;27061;41.648;24.568;2022-07-29T10:31:06;86292.97;;;28.90;35.78
41312;BME280;27061;41.648;24.568;2022-07-29T10:42:28;86286.13;;;29.06;36.24
41312;BME280;27061;41.648;24.568;2022-07-29T10:45:18;86270.97;;;28.99;35.05
41312;BME280;27061;41.648;24.568;2022-07-29T10:47:47;86285.66;;;29.23;34.79
41312;BME280;27061;41.648;24.568;2022-07-29T10:50:59;86279.56;;;29.19;33.89
41312;BME280;27061;41.648;24.568;2022-07-29T10:53:51;86276.25;;;29.25;34.49
41312;BME280;27061;41.648;24.568;2022-07-29T10:56:43;86270.84;;;29.21;34.47
41312;BME280;27061;41.648;24.568;2022-07-29T10:59:49;86267.56;;;29.27;31.69
41312;BME280;27061;41.648;24.568;2022-07-29T11:05:15;86262.78;;;29.34;33.37
41312;BME280;27061;41.648;24.568;2022-07-29T11:10:48;86254.75;;;29.36;35.24
41312;BME280;27061;41.648;24.568;2022-07-29T11:16:15;86249.00;;;29.47;33.55
41312;BME280;27061;41.648;24.568;2022-07-29T11:21:42;86264.03;;;29.75;31.96
41312;BME280;27061;41.648;24.568;2022-07-29T11:24:30;86259.97;;;29.72;32.24
41312;BME280;27061;41.648;24.568;2022-07-29T11:27:17;86227.97;;;29.61;32.79
41312;BME280;27061;41.648;24.568;2022-07-29T11:29:56;86234.81;;;29.75;34.65
41312;BME280;27061;41.648;24.568;2022-07-29T11:32:49;86211.25;;;29.66;33.90
41312;BME280;27061;41.648;24.568;2022-07-29T11:35:19;86229.19;;;29.83;31.02
41312;BME280;27061;41.648;24.568;2022-07-29T11:38:25;86243.44;;;30.03;29.76
41312;BME280;27061;41.648;24.568;2022-07-29T11:43:58;86246.25;;;30.22;32.98
41312;BME280;27061;41.648;24.568;2022-07-29T11:46:48;86245.97;;;30.26;33.76
41312;BME280;27061;41.648;24.568;2022-07-29T11:49:22;86237.53;;;30.24;32.04
41312;BME280;27061;41.648;24.568;2022-07-29T11:52:16;86235.56;;;30.31;31.05
41312;BME280;27061;41.648;24.568;2022-07-29T11:54:48;86234.63;;;30.43;33.00
41312;BME280;27061;41.648;24.568;2022-07-29T11:57:27;86235.31;;;30.44;32.33
41312;BME280;27061;41.648;24.568;2022-07-29T12:00:33;86227.56;;;30.42;32.80
41312;BME280;27061;41.648;24.568;2022-07-29T12:03:07;86243.78;;;30.54;32.11
41312;BME280;27061;41.648;24.568;2022-07-29T12:05:42;86230.91;;;30.64;33.20
41312;BME280;27061;41.648;24.568;2022-07-29T12:08:20;86239.00;;;30.70;31.17
41312;BME280;27061;41.648;24.568;2022-07-29T12:10:51;86235.16;;;30.74;30.08
41312;BME280;27061;41.648;24.568;2022-07-29T12:13:20;86216.84;;;30.51;29.19
41312;BME280;27061;41.648;24.568;2022-07-29T12:15:56;86242.94;;;30.84;32.74
41312;BME280;27061;41.648;24.568;2022-07-29T12:18:26;86229.13;;;30.78;32.54
41312;BME280;27061;41.648;24.568;2022-07-29T12:21:02;86238.97;;;30.98;32.34
41312;BME280;27061;41.648;24.568;2022-07-29T12:23:32;86248.38;;;31.05;31.62
41312;BME280;27061;41.648;24.568;2022-07-29T12:26:05;86241.72;;;31.09;30.70
41312;BME280;27061;41.648;24.568;2022-07-29T12:29:16;86248.13;;;31.18;30.07
41312;BME280;27061;41.648;24.568;2022-07-29T12:32:07;86242.63;;;31.24;33.05
41312;BME280;27061;41.648;24.568;2022-07-29T12:34:45;86221.72;;;31.17;32.13
41312;BME280;27061;41.648;24.568;2022-07-29T12:37:18;86219.75;;;30.88;30.47
41312;BME280;27061;41.648;24.568;2022-07-29T12:39:57;86214.47;;;31.10;32.49
41312;BME280;27061;41.648;24.568;2022-07-29T12:42:24;86234.88;;;31.32;32.38
41312;BME280;27061;41.648;24.568;2022-07-29T12:44:51;86231.09;;;31.07;29.41
41312;BME280;27061;41.648;24.568;2022-07-29T12:47:20;86223.47;;;30.95;31.83
41312;BME280;27061;41.648;24.568;2022-07-29T12:49:49;86216.91;;;30.97;31.01
41312;BME280;27061;41.648;24.568;2022-07-29T12:52:28;86226.75;;;30.72;31.74
41312;BME280;27061;41.648;24.568;2022-07-29T12:54:57;86224.75;;;30.79;30.56
41312;BME280;27061;41.648;24.568;2022-07-29T12:57:25;86230.78;;;30.75;30.68
41312;BME280;27061;41.648;24.568;2022-07-29T13:00:24;86225.41;;;30.71;31.56
41312;BME280;27061;41.648;24.568;2022-07-29T13:02:59;86199.69;;;30.43;31.25
41312;BME280;27061;41.648;24.568;2022-07-29T13:05:44;86208.78;;;30.45;31.02
41312;BME280;27061;41.648;24.568;2022-07-29T13:08:18;86220.56;;;30.50;32.25
41312;BME280;27061;41.648;24.568;2022-07-29T13:10:49;86209.88;;;30.31;32.58
41312;BME280;27061;41.648;24.568;2022-07-29T13:13:17;86212.72;;;30.31;31.85
41312;BME280;27061;41.648;24.568;2022-07-29T13:15:45;86208.06;;;30.36;33.51
41312;BME280;27061;41.648;24.568;2022-07-29T13:18:33;86215.16;;;30.46;31.46
41312;BME280;27061;41.648;24.568;2022-07-29T13:21:15;86203.66;;;30.29;32.24
41312;BME280;27061;41.648;24.568;2022-07-29T13:24:10;86206.69;;;30.35;33.19
41312;BME280;27061;41.648;24.568;2022-07-29T13:26:39;86218.34;;;30.14;34.19
41312;BME280;27061;41.648;24.568;2022-07-29T13:29:08;86230.81;;;30.19;33.62
41312;BME280;27061;41.648;24.568;2022-07-29T13:32:12;86227.66;;;30.04;32.87
41312;BME280;27061;41.648;24.568;2022-07-29T13:35:07;86226.47;;;30.01;32.78
41312;BME280;27061;41.648;24.568;2022-07-29T13:37:36;86217.09;;;29.83;31.45
41312;BME280;27061;41.648;24.568;2022-07-29T13:40:10;86225.84;;;29.90;31.92
41312;BME280;27061;41.648;24.568;2022-07-29T13:42:38;86221.34;;;29.93;32.35
41312;BME280;27061;41.648;24.568;2022-07-29T13:45:07;86191.19;;;29.76;33.07
41312;BME280;27061;41.648;24.568;2022-07-29T13:47:36;86214.59;;;30.07;33.83
41312;BME280;27061;41.648;24.568;2022-07-29T13:50:05;86217.59;;;30.05;34.41
41312;BME280;27061;41.648;24.568;2022-07-29T13:52:33;86211.53;;;30.00;32.72
41312;BME280;27061;41.648;24.568;2022-07-29T13:55:02;86213.19;;;29.97;31.32
41312;BME280;27061;41.648;24.568;2022-07-29T13:57:30;86173.09;;;29.80;32.93
41312;BME280;27061;41.648;24.568;2022-07-29T13:59:58;86202.47;;;29.98;32.56
41312;BME280;27061;41.648;24.568;2022-07-29T14:02:26;86198.53;;;29.93;32.71
41312;BME280;27061;41.648;24.568;2022-07-29T14:04:54;86210.00;;;30.01;32.65
41312;BME280;27061;41.648;24.568;2022-07-29T14:07:46;86204.22;;;29.93;32.30
41312;BME280;27061;41.648;24.568;2022-07-29T14:10:14;86190.88;;;29.80;32.32
41312;BME280;27061;41.648;24.568;2022-07-29T14:12:46;86195.91;;;29.80;31.59
41312;BME280;27061;41.648;24.568;2022-07-29T14:15:13;86191.38;;;29.55;32.75
41312;BME280;27061;41.648;24.568;2022-07-29T14:17:41;86213.88;;;29.59;31.79